Time;durP1;ratioP1;P1;durP2;ratioP2;P2;SDS_P1;SDS_P2;PMS_P1;PMS_P2;Temp;Humidity;BMP_temperature;BMP_pressure;BME280_temperature;BME280_humidity;BME280_pressure;Samples;Min_cycle;Max_cycle;Signal;HPM_P1;HPM_P2
2022/03/15 09:51:42;;;;;;;4.43;2.97;;;8.80;99.90;;;;;;5070739;28;20609;-70
2022/03/15 09:54:07;;;;;;;3.58;3.10;;;8.90;99.90;;;;;;5070546;28;20177;-71
2022/03/15 09:56:39;;;;;;;8.93;3.13;;;9.00;99.90;;;;;;5070565;28;20259;-71
2022/03/15 09:59:16;;;;;;;3.85;3.40;;;9.00;99.90;;;;;;5070556;28;20222;-71
2022/03/15 10:01:43;;;;;;;5.15;3.13;;;9.10;99.90;;;;;;5070592;28;20161;-71
2022/03/15 10:04:09;;;;;;;3.60;3.13;;;9.10;99.90;;;;;;5070308;28;20188;-71
2022/03/15 10:06:37;;;;;;;4.97;3.63;;;9.20;99.90;;;;;;5070353;28;20180;-71
2022/03/15 10:09:04;;;;;;;4.72;3.25;;;9.20;99.90;;;;;;5070347;28;20218;-71
2022/03/15 10:11:29;;;;;;;8.48;3.83;;;9.30;99.90;;;;;;5070207;28;20192;-71
2022/03/15 10:13:55;;;;;;;9.45;3.63;;;9.30;99.90;;;;;;5070238;28;20184;-71
2022/03/15 10:16:29;;;;;;;6.60;3.28;;;9.30;99.90;;;;;;5070155;28;20168;-71
2022/03/15 10:18:57;;;;;;;3.75;3.08;;;9.30;99.90;;;;;;5070054;28;20164;-71
2022/03/15 10:21:26;;;;;;;3.58;3.20;;;9.40;99.90;;;;;;5070097;28;20650;-71
2022/03/15 10:23:57;;;;;;;3.72;3.38;;;9.40;99.90;;;;;;5070141;28;20172;-71
2022/03/15 10:26:25;;;;;;;3.92;3.22;;;9.50;99.90;;;;;;5070079;28;20164;-71
2022/03/15 10:28:53;;;;;;;4.57;3.22;;;9.50;99.90;;;;;;5069974;28;20168;-71
2022/03/15 10:31:23;;;;;;;6.55;3.20;;;9.50;99.90;;;;;;5069640;28;20192;-71
2022/03/15 10:33:53;;;;;;;10.13;3.47;;;9.60;99.90;;;;;;5069934;28;20171;-71
2022/03/15 10:36:24;;;;;;;6.80;3.28;;;9.60;99.90;;;;;;5069890;28;20168;-71
2022/03/15 10:38:51;;;;;;;6.45;3.50;;;9.60;99.90;;;;;;5068546;28;20573;-71
2022/03/15 10:41:18;;;;;;;5.00;3.40;;;9.70;99.90;;;;;;5069711;28;20533;-71
2022/03/15 10:43:49;;;;;;;4.00;3.05;;;9.70;99.90;;;;;;5069498;28;20191;-73
2022/03/15 10:46:22;;;;;;;4.72;2.95;;;9.80;99.90;;;;;;5069670;28;20533;-72
2022/03/15 10:49:00;;;;;;;7.70;4.55;;;9.80;99.90;;;;;;5069547;28;20169;-72
2022/03/15 10:51:25;;;;;;;3.78;3.03;;;9.80;99.90;;;;;;5069394;28;20244;-72
2022/03/15 10:54:00;;;;;;;3.70;3.45;;;11.20;99.90;;;;;;5069350;28;20184;-72
2022/03/15 10:56:26;;;;;;;3.97;2.90;;;9.90;99.90;;;;;;5069425;28;20168;-72
2022/03/15 10:58:51;;;;;;;5.97;3.05;;;9.90;99.90;;;;;;5069320;28;20602;-72
2022/03/15 11:01:24;;;;;;;3.55;2.40;;;9.90;99.90;;;;;;5065778;28;20177;-71
2022/03/15 11:04:03;;;;;;;6.60;2.67;;;9.90;99.90;;;;;;5056134;28;20626;-71
2022/03/15 11:06:39;;;;;;;6.35;2.90;;;10.00;99.90;;;;;;5054871;28;20181;-71
2022/03/15 11:09:26;;;;;;;4.10;3.13;;;10.00;99.90;;;;;;5054701;28;20169;-71
2022/03/15 11:12:01;;;;;;;3.85;2.83;;;10.00;99.90;;;;;;5056017;28;20172;-71
2022/03/15 11:14:45;;;;;;;4.22;2.95;;;10.00;99.90;;;;;;5055782;28;20256;-72
2022/03/15 11:17:18;;;;;;;3.25;2.97;;;10.10;99.90;;;;;;5055884;28;20493;-72
2022/03/15 11:19:52;;;;;;;5.30;2.70;;;10.00;99.90;;;;;;5055641;28;20222;-72
2022/03/15 11:22:20;;;;;;;3.17;2.35;;;10.00;99.90;;;;;;5055632;28;20173;-72
2022/03/15 11:25:09;;;;;;;3.10;2.88;;;10.00;99.90;;;;;;5054657;28;20181;-72
2022/03/15 11:27:43;;;;;;;4.70;2.80;;;9.90;99.90;;;;;;5055496;28;20169;-72
2022/03/15 11:30:11;;;;;;;4.00;3.08;;;9.90;99.90;;;;;;5055524;28;20197;-72
2022/03/15 11:32:37;;;;;;;10.98;3.53;;;9.80;99.90;;;;;;5055557;28;20548;-72
2022/03/15 11:35:08;;;;;;;3.47;2.53;;;9.80;99.90;;;;;;5055430;28;20193;-70
2022/03/15 11:37:38;;;;;;;3.50;3.20;;;9.80;99.90;;;;;;5055436;28;20169;-71
2022/03/15 11:40:07;;;;;;;4.95;3.65;;;9.80;99.90;;;;;;5055365;28;20173;-71
2022/03/15 11:42:34;;;;;;;3.92;3.58;;;9.70;99.90;;;;;;5055401;28;20635;-72
2022/03/15 11:45:14;;;;;;;4.25;3.47;;;9.70;99.90;;;;;;5055232;28;20688;-72
2022/03/15 11:47:45;;;;;;;5.28;3.33;;;9.70;99.90;;;;;;5055262;28;20250;-72
2022/03/15 11:50:24;;;;;;;4.55;4.15;;;9.70;99.90;;;;;;5055030;28;20295;-72
2022/03/15 11:53:20;;;;;;;6.20;3.40;;;9.60;99.90;;;;;;5054846;28;20252;-72
2022/03/15 11:55:55;;;;;;;5.22;4.38;;;9.60;99.90;;;;;;5055121;28;20170;-72
2022/03/15 11:58:28;;;;;;;4.40;4.05;;;9.60;99.90;;;;;;5055025;28;20172;-72
2022/03/15 12:00:57;;;;;;;4.13;3.50;;;9.70;99.90;;;;;;5053706;28;20173;-72
2022/03/15 12:03:23;;;;;;;5.78;3.75;;;9.60;99.90;;;;;;5055013;28;20236;-72
2022/03/15 12:05:57;;;;;;;5.22;3.80;;;9.70;99.90;;;;;;5054826;28;20192;-72
2022/03/15 12:08:26;;;;;;;7.35;3.92;;;9.70;99.90;;;;;;5054897;28;20173;-72
2022/03/15 12:10:57;;;;;;;5.97;3.90;;;9.70;99.90;;;;;;5053501;28;20200;-72
2022/03/15 12:13:41;;;;;;;4.35;4.05;;;9.70;99.90;;;;;;5053658;28;20165;-72
2022/03/15 12:16:21;;;;;;;3.75;3.45;;;9.70;99.90;;;;;;5054734;28;20157;-72
2022/03/15 12:21:54;;;;;;;7.45;3.90;;;10.30;99.90;;;;;;5054691;28;20175;-72
2022/03/15 12:24:33;;;;;;;6.35;3.90;;;9.60;99.90;;;;;;5053245;28;20227;-72
2022/03/15 12:27:11;;;;;;;11.10;3.85;;;9.60;99.90;;;;;;5053146;28;20180;-72
2022/03/15 12:29:37;;;;;;;5.95;4.00;;;9.60;99.90;;;;;;5054404;28;20250;-72
2022/03/15 12:32:14;;;;;;;5.78;4.38;;;9.60;99.90;;;;;;5054292;28;20631;-72
2022/03/15 12:34:43;;;;;;;6.40;4.15;;;9.60;99.90;;;;;;5054288;28;20183;-72
2022/03/15 12:37:09;;;;;;;4.38;3.90;;;9.90;99.90;;;;;;5054321;28;20172;-72
2022/03/15 12:39:35;;;;;;;6.38;3.47;;;9.60;99.90;;;;;;5053008;28;20173;-72
2022/03/15 12:42:11;;;;;;;3.72;3.47;;;9.70;99.90;;;;;;5054219;28;20165;-72
2022/03/15 12:44:48;;;;;;;6.75;3.80;;;9.70;99.90;;;;;;5054084;28;20219;-72
2022/03/15 12:47:18;;;;;;;7.38;4.07;;;9.70;99.90;;;;;;5052822;28;20168;-72
2022/03/15 12:50:07;;;;;;;5.18;4.13;;;9.80;99.90;;;;;;5053525;28;20309;-70
2022/03/15 12:52:45;;;;;;;3.88;3.58;;;9.90;99.90;;;;;;5054068;28;20394;-70
2022/03/15 12:55:19;;;;;;;4.97;4.50;;;9.90;99.90;;;;;;5053961;28;20529;-70
2022/03/15 12:57:56;;;;;;;5.82;4.50;;;9.90;99.90;;;;;;5053476;28;20246;-70
2022/03/15 13:00:24;;;;;;;4.25;4.05;;;10.00;99.90;;;;;;5054001;28;20180;-71
2022/03/15 13:02:55;;;;;;;5.63;4.20;;;10.00;99.90;;;;;;5053854;28;20200;-70
2022/03/15 13:05:21;;;;;;;5.40;3.60;;;10.00;99.90;;;;;;5053750;28;20193;-70
2022/03/15 13:07:50;;;;;;;13.65;4.35;;;10.10;99.90;;;;;;5053789;28;20717;-70
2022/03/15 13:10:18;;;;;;;10.35;4.25;;;10.10;99.90;;;;;;5053643;28;20189;-70
2022/03/15 13:12:44;;;;;;;3.78;3.40;;;10.20;99.90;;;;;;5053671;28;20169;-69
2022/03/15 13:15:20;;;;;;;4.25;3.90;;;10.20;99.90;;;;;;5052107;28;20577;-70
2022/03/15 13:17:59;;;;;;;7.28;4.25;;;10.20;99.90;;;;;;5053633;28;20204;-70
2022/03/15 13:20:26;;;;;;;4.63;4.22;;;10.20;99.90;;;;;;5053609;28;20165;-69
2022/03/15 13:23:00;;;;;;;5.28;4.40;;;10.20;99.90;;;;;;5053520;28;20165;-74
2022/03/15 13:25:46;;;;;;;4.80;4.40;;;10.20;99.90;;;;;;5051406;28;20208;-71
2022/03/15 13:28:24;;;;;;;6.20;4.00;;;10.20;99.90;;;;;;5051733;28;20581;-71
2022/03/15 13:30:53;;;;;;;4.47;4.03;;;10.20;99.90;;;;;;5051689;28;20670;-72
2022/03/15 13:33:38;;;;;;;5.18;4.20;;;10.20;99.90;;;;;;5053259;28;20169;-73
2022/03/15 13:36:10;;;;;;;4.47;4.07;;;10.20;99.90;;;;;;5053254;28;20181;-71
2022/03/15 13:38:48;;;;;;;6.22;4.30;;;10.30;99.90;;;;;;5052582;28;20165;-72
2022/03/15 13:41:19;;;;;;;5.97;4.43;;;10.20;99.90;;;;;;5053587;28;20173;-71
2022/03/15 13:43:46;;;;;;;5.72;4.97;;;10.20;99.90;;;;;;5053206;28;20170;-72
2022/03/15 13:46:13;;;;;;;4.40;4.00;;;10.10;99.90;;;;;;5052916;28;20225;-73
2022/03/15 13:48:41;;;;;;;6.18;4.63;;;10.00;99.90;;;;;;5052668;28;20165;-73
2022/03/15 13:51:10;;;;;;;4.55;4.18;;;9.90;99.90;;;;;;5052974;28;20248;-74
2022/03/15 13:53:42;;;;;;;4.50;4.13;;;10.00;99.90;;;;;;5052881;28;20654;-67
2022/03/15 13:56:13;;;;;;;4.63;4.22;;;10.00;99.90;;;;;;5052826;28;20251;-81
2022/03/15 13:58:44;;;;;;;6.78;3.80;;;10.00;99.90;;;;;;5051819;28;20666;-77
2022/03/15 14:01:10;;;;;;;5.45;3.90;;;10.00;99.90;;;;;;5053165;28;20183;-75
2022/03/15 14:03:37;;;;;;;4.13;3.75;;;10.00;99.90;;;;;;5052950;28;20546;-75
2022/03/15 14:06:07;;;;;;;5.47;4.82;;;10.10;99.90;;;;;;5052927;28;20189;-74
2022/03/15 14:08:43;;;;;;;7.25;4.43;;;10.20;99.90;;;;;;5052900;28;20203;-75
2022/03/15 14:11:10;;;;;;;4.38;3.97;;;10.10;99.90;;;;;;5051722;28;20570;-75
2022/03/15 14:13:36;;;;;;;5.00;4.47;;;10.10;99.90;;;;;;5052872;28;20181;-75
2022/03/15 14:16:10;;;;;;;5.28;4.55;;;10.10;99.90;;;;;;5052993;28;20627;-74
2022/03/15 14:18:37;;;;;;;5.88;4.20;;;10.10;99.90;;;;;;5051526;28;20178;-75
2022/03/15 14:21:18;;;;;;;7.05;4.10;;;10.00;99.90;;;;;;5052828;28;20282;-74
2022/03/15 14:23:53;;;;;;;6.43;4.63;;;9.90;99.90;;;;;;5052878;28;20182;-74
2022/03/15 14:26:28;;;;;;;5.82;4.72;;;9.80;99.90;;;;;;5052840;28;20169;-73
2022/03/15 14:29:00;;;;;;;9.23;6.05;;;9.80;99.90;;;;;;5052796;28;20176;-73
2022/03/15 14:31:37;;;;;;;10.02;6.25;;;9.60;99.90;;;;;;5051446;28;20189;-73
2022/03/15 14:34:08;;;;;;;6.75;4.95;;;9.60;99.90;;;;;;5052852;28;20176;-74
2022/03/15 14:36:36;;;;;;;5.60;5.10;;;9.60;99.90;;;;;;5053421;28;20175;-73
2022/03/15 14:39:31;;;;;;;6.75;5.35;;;9.70;99.90;;;;;;5056742;28;20176;-73
2022/03/15 14:41:56;;;;;;;5.05;4.65;;;9.70;99.90;;;;;;5055720;28;20541;-73
2022/03/15 14:44:22;;;;;;;6.18;5.00;;;9.70;99.90;;;;;;5056537;28;20251;-74
2022/03/15 14:46:50;;;;;;;9.90;4.85;;;9.70;99.90;;;;;;5056415;28;20171;-74
2022/03/15 14:49:19;;;;;;;4.45;4.05;;;9.60;99.90;;;;;;5056217;28;20634;-75
2022/03/15 14:51:45;;;;;;;4.20;3.90;;;9.40;99.90;;;;;;5056266;28;20196;-74
2022/03/15 14:54:11;;;;;;;6.60;4.45;;;9.40;99.90;;;;;;5056184;28;20696;-74
2022/03/15 14:56:38;;;;;;;15.23;6.03;;;9.30;99.90;;;;;;5056530;28;20603;-74
2022/03/15 14:59:08;;;;;;;6.10;4.22;;;9.30;99.90;;;;;;5056208;28;20252;-76
2022/03/15 15:01:38;;;;;;;4.40;4.00;;;9.20;99.90;;;;;;5056132;28;20256;-74
2022/03/15 15:04:07;;;;;;;4.50;4.20;;;9.20;99.90;;;;;;5054914;28;20192;-74
2022/03/15 15:06:33;;;;;;;4.28;3.88;;;9.20;99.90;;;;;;5056026;28;20184;-74
2022/03/15 15:09:01;;;;;;;6.68;4.40;;;9.10;99.90;;;;;;5055937;28;20177;-74
2022/03/15 15:11:28;;;;;;;6.45;3.97;;;9.10;99.90;;;;;;5055875;28;20539;-73
2022/03/15 15:13:56;;;;;;;4.75;4.45;;;9.00;99.90;;;;;;5054628;28;20630;-73
2022/03/15 15:16:27;;;;;;;4.95;4.55;;;9.00;99.90;;;;;;5055864;28;20169;-74
2022/03/15 15:18:54;;;;;;;5.07;4.32;;;9.00;99.90;;;;;;5055606;28;20180;-73
2022/03/15 15:21:21;;;;;;;9.18;5.30;;;9.00;99.90;;;;;;5054497;28;20173;-73
2022/03/15 15:23:48;;;;;;;7.68;5.03;;;9.00;99.90;;;;;;5055583;28;20203;-73
2022/03/15 15:26:13;;;;;;;5.47;4.72;;;9.00;99.90;;;;;;5055408;28;20169;-73
2022/03/15 15:28:40;;;;;;;6.55;4.85;;;9.00;99.90;;;;;;5055610;28;20252;-73
2022/03/15 15:31:08;;;;;;;4.55;4.15;;;9.10;99.90;;;;;;5055483;28;20192;-74
2022/03/15 15:33:34;;;;;;;4.65;4.25;;;9.10;99.90;;;;;;5055570;28;20169;-74
2022/03/15 15:35:59;;;;;;;4.30;3.97;;;9.10;99.90;;;;;;5055680;28;20214;-74
2022/03/15 15:38:26;;;;;;;3.92;3.53;;;9.10;99.90;;;;;;5055464;28;20161;-74
2022/03/15 15:40:54;;;;;;;6.20;3.85;;;9.20;99.90;;;;;;5055442;28;20189;-73
2022/03/15 15:43:23;;;;;;;4.95;4.13;;;9.20;99.90;;;;;;5055306;28;20173;-73
2022/03/15 15:45:49;;;;;;;10.57;4.35;;;9.30;99.90;;;;;;5055366;28;20169;-74
2022/03/15 15:48:19;;;;;;;5.80;4.53;;;9.30;99.90;;;;;;5055174;28;20173;-74
2022/03/15 15:50:47;;;;;;;4.78;4.15;;;9.30;99.90;;;;;;5054961;28;20244;-73
2022/03/15 15:53:15;;;;;;;6.20;3.92;;;9.30;99.90;;;;;;5055159;28;20173;-74
2022/03/15 15:55:42;;;;;;;7.78;4.68;;;9.30;99.90;;;;;;5055127;28;20529;-74
2022/03/15 15:58:08;;;;;;;4.35;3.70;;;9.20;99.90;;;;;;5055049;28;20157;-75
2022/03/15 16:00:36;;;;;;;5.07;4.22;;;9.10;99.90;;;;;;5053729;28;20177;-74
2022/03/15 16:03:06;;;;;;;6.72;4.63;;;9.20;99.90;;;;;;5054950;28;20161;-74
2022/03/15 16:05:33;;;;;;;4.57;4.28;;;9.10;99.90;;;;;;5054880;28;20220;-74
2022/03/15 16:08:00;;;;;;;5.57;4.95;;;9.10;99.90;;;;;;5054881;28;20283;-74
2022/03/15 16:10:27;;;;;;;5.72;5.20;;;9.00;99.90;;;;;;5054800;28;20551;-75
2022/03/15 16:12:54;;;;;;;5.80;5.15;;;9.00;99.90;;;;;;5053369;28;20536;-74
2022/03/15 16:15:23;;;;;;;5.47;4.97;;;9.00;99.90;;;;;;5054790;28;20176;-76
2022/03/15 16:17:53;;;;;;;4.50;3.72;;;9.00;99.90;;;;;;5053421;28;20176;-75
2022/03/15 16:20:19;;;;;;;6.50;4.63;;;8.80;99.90;;;;;;5054792;28;20173;-73
2022/03/15 16:22:45;;;;;;;5.28;4.25;;;8.90;99.90;;;;;;5054380;28;20276;-74
2022/03/15 16:25:12;;;;;;;4.35;4.05;;;8.70;99.90;;;;;;5054588;28;20232;-74
2022/03/15 16:27:39;;;;;;;4.40;4.10;;;8.70;99.90;;;;;;5053206;28;20217;-73
2022/03/15 16:30:06;;;;;;;3.55;3.25;;;8.60;99.90;;;;;;5054198;28;20255;-71
